sensor_id;sensor_type;location;lat;lon;timestamp;temperature;humidity
41644;DHT22;44236;48.098;11.582;2023-09-12T02:43:47;22.80;80.50
41644;DHT22;44236;48.098;11.582;2023-09-12T02:46:13;22.70;63.30
41644;DHT22;44236;48.098;11.582;2023-09-12T02:48:38;22.70;62.10
41644;DHT22;44236;48.098;11.582;2023-09-12T02:51:04;22.60;61.80
41644;DHT22;44236;48.098;11.582;2023-09-12T02:53:30;22.70;61.90
41644;DHT22;44236;48.098;11.582;2023-09-12T02:59:16;22.60;62.30
41644;DHT22;44236;48.098;11.582;2023-09-12T03:01:42;22.70;69.90
41644;DHT22;44236;48.098;11.582;2023-09-12T03:04:07;22.60;59.20
41644;DHT22;44236;48.098;11.582;2023-09-12T03:06:33;22.50;59.30
41644;DHT22;44236;48.098;11.582;2023-09-12T03:08:58;22.50;60.00
41644;DHT22;44236;48.098;11.582;2023-09-12T03:11:26;22.70;70.60
41644;DHT22;44236;48.098;11.582;2023-09-12T03:13:53;22.50;59.30
41644;DHT22;44236;48.098;11.582;2023-09-12T03:16:18;22.40;59.20
41644;DHT22;44236;48.098;11.582;2023-09-12T03:18:44;22.50;59.20
41644;DHT22;44236;48.098;11.582;2023-09-12T03:21:09;22.50;59.10
41644;DHT22;44236;48.098;11.582;2023-09-12T03:23:35;22.40;59.20
41644;DHT22;44236;48.098;11.582;2023-09-12T03:26:05;22.60;70.60
41644;DHT22;44236;48.098;11.582;2023-09-12T03:28:31;22.50;62.60
41644;DHT22;44236;48.098;11.582;2023-09-12T03:31:06;22.40;59.00
41644;DHT22;44236;48.098;11.582;2023-09-12T03:33:32;22.40;59.10
41644;DHT22;44236;48.098;11.582;2023-09-12T03:35:58;22.40;59.00
41644;DHT22;44236;48.098;11.582;2023-09-12T03:38:24;22.30;58.90
41644;DHT22;44236;48.098;11.582;2023-09-12T03:40:49;22.30;58.90
41644;DHT22;44236;48.098;11.582;2023-09-12T03:43:15;22.40;64.40
41644;DHT22;44236;48.098;11.582;2023-09-12T03:45:40;22.40;76.90
41644;DHT22;44236;48.098;11.582;2023-09-12T03:48:06;22.40;74.30
41644;DHT22;44236;48.098;11.582;2023-09-12T03:50:32;22.40;73.70
41644;DHT22;44236;48.098;11.582;2023-09-12T03:52:57;22.30;72.60
41644;DHT22;44236;48.098;11.582;2023-09-12T03:55:23;22.30;81.70
41644;DHT22;44236;48.098;11.582;2023-09-12T03:57:48;22.30;66.70
41644;DHT22;44236;48.098;11.582;2023-09-12T04:00:15;22.30;66.60
41644;DHT22;44236;48.098;11.582;2023-09-12T04:02:40;22.20;65.50
41644;DHT22;44236;48.098;11.582;2023-09-12T04:05:06;22.20;65.60
41644;DHT22;44236;48.098;11.582;2023-09-12T04:07:32;22.20;66.20
41644;DHT22;44236;48.098;11.582;2023-09-12T04:09:57;22.20;66.30
41644;DHT22;44236;48.098;11.582;2023-09-12T04:12:23;22.20;59.30
41644;DHT22;44236;48.098;11.582;2023-09-12T04:14:50;22.10;59.00
41644;DHT22;44236;48.098;11.582;2023-09-12T04:17:16;22.10;60.60
41644;DHT22;44236;48.098;11.582;2023-09-12T04:19:42;22.10;60.40
41644;DHT22;44236;48.098;11.582;2023-09-12T04:22:07;22.00;59.10
41644;DHT22;44236;48.098;11.582;2023-09-12T04:24:33;22.00;59.10
41644;DHT22;44236;48.098;11.582;2023-09-12T04:26:59;22.00;59.20
41644;DHT22;44236;48.098;11.582;2023-09-12T04:29:24;22.00;59.50
41644;DHT22;44236;48.098;11.582;2023-09-12T04:31:50;22.10;60.00
41644;DHT22;44236;48.098;11.582;2023-09-12T04:34:18;22.10;60.10
41644;DHT22;44236;48.098;11.582;2023-09-12T04:36:43;22.10;60.70
41644;DHT22;44236;48.098;11.582;2023-09-12T04:39:09;22.10;60.80
41644;DHT22;44236;48.098;11.582;2023-09-12T04:41:34;22.10;60.50
41644;DHT22;44236;48.098;11.582;2023-09-12T04:44:00;22.10;60.60
41644;DHT22;44236;48.098;11.582;2023-09-12T04:46:27;22.10;60.70
41644;DHT22;44236;48.098;11.582;2023-09-12T04:48:53;22.20;60.70
41644;DHT22;44236;48.098;11.582;2023-09-12T04:51:19;22.30;60.60
41644;DHT22;44236;48.098;11.582;2023-09-12T04:53:44;22.30;60.40
41644;DHT22;44236;48.098;11.582;2023-09-12T04:56:10;22.40;60.30
41644;DHT22;44236;48.098;11.582;2023-09-12T04:58:35;22.40;60.10
41644;DHT22;44236;48.098;11.582;2023-09-12T05:01:01;22.50;60.40
41644;DHT22;44236;48.098;11.582;2023-09-12T05:03:28;22.50;60.50
41644;DHT22;44236;48.098;11.582;2023-09-12T05:05:53;22.50;60.50
41644;DHT22;44236;48.098;11.582;2023-09-12T05:08:19;22.60;60.30
41644;DHT22;44236;48.098;11.582;2023-09-12T05:10:45;22.50;60.10
41644;DHT22;44236;48.098;11.582;2023-09-12T05:13:11;22.40;60.10
41644;DHT22;44236;48.098;11.582;2023-09-12T05:18:08;22.40;84.60
41644;DHT22;44236;48.098;11.582;2023-09-12T05:20:34;21.60;59.60
41644;DHT22;44236;48.098;11.582;2023-09-12T05:23:00;21.70;73.10
41644;DHT22;44236;48.098;11.582;2023-09-12T05:25:25;21.90;74.20
41644;DHT22;44236;48.098;11.582;2023-09-12T05:27:54;22.20;74.30
41644;DHT22;44236;48.098;11.582;2023-09-12T05:30:20;22.30;75.00
41644;DHT22;44236;48.098;11.582;2023-09-12T05:32:45;22.50;75.60
41644;DHT22;44236;48.098;11.582;2023-09-12T05:35:11;22.50;73.70
41644;DHT22;44236;48.098;11.582;2023-09-12T05:37:37;22.60;72.30
41644;DHT22;44236;48.098;11.582;2023-09-12T05:40:02;22.70;71.10
41644;DHT22;44236;48.098;11.582;2023-09-12T05:42:29;22.80;70.80
41644;DHT22;44236;48.098;11.582;2023-09-12T05:44:54;22.90;69.80
41644;DHT22;44236;48.098;11.582;2023-09-12T05:47:20;22.90;67.30
41644;DHT22;44236;48.098;11.582;2023-09-12T05:49:46;22.90;66.30
41644;DHT22;44236;48.098;11.582;2023-09-12T05:52:12;22.90;65.30
41644;DHT22;44236;48.098;11.582;2023-09-12T05:54:41;23.00;64.30
41644;DHT22;44236;48.098;11.582;2023-09-12T05:57:08;23.00;63.50
41644;DHT22;44236;48.098;11.582;2023-09-12T05:59:38;23.00;63.10
41644;DHT22;44236;48.098;11.582;2023-09-12T06:02:05;23.10;62.10
41644;DHT22;44236;48.098;11.582;2023-09-12T06:04:32;23.10;62.00
41644;DHT22;44236;48.098;11.582;2023-09-12T06:06:57;23.10;61.50
41644;DHT22;44236;48.098;11.582;2023-09-12T06:09:23;23.20;60.40
41644;DHT22;44236;48.098;11.582;2023-09-12T06:11:49;23.20;59.90
41644;DHT22;44236;48.098;11.582;2023-09-12T06:14:15;23.20;59.60
41644;DHT22;44236;48.098;11.582;2023-09-12T06:16:41;23.10;60.00
41644;DHT22;44236;48.098;11.582;2023-09-12T06:19:06;23.00;60.60
41644;DHT22;44236;48.098;11.582;2023-09-12T06:21:32;22.80;61.00
41644;DHT22;44236;48.098;11.582;2023-09-12T06:24:20;22.80;61.40
41644;DHT22;44236;48.098;11.582;2023-09-12T06:26:47;22.80;61.60
41644;DHT22;44236;48.098;11.582;2023-09-12T06:29:13;22.90;61.50
41644;DHT22;44236;48.098;11.582;2023-09-12T06:31:39;22.90;61.60
41644;DHT22;44236;48.098;11.582;2023-09-12T06:34:07;22.90;61.80
41644;DHT22;44236;48.098;11.582;2023-09-12T06:36:32;22.90;61.70
41644;DHT22;44236;48.098;11.582;2023-09-12T06:38:59;22.90;61.00
41644;DHT22;44236;48.098;11.582;2023-09-12T06:41:26;23.00;60.50
41644;DHT22;44236;48.098;11.582;2023-09-12T06:43:53;22.90;60.50
41644;DHT22;44236;48.098;11.582;2023-09-12T06:46:19;23.20;61.00
41644;DHT22;44236;48.098;11.582;2023-09-12T06:48:45;23.30;70.30
41644;DHT22;44236;48.098;11.582;2023-09-12T06:51:11;23.20;60.10
41644;DHT22;44236;48.098;11.582;2023-09-12T06:53:36;23.30;60.40
41644;DHT22;44236;48.098;11.582;2023-09-12T06:56:03;23.30;60.00
41644;DHT22;44236;48.098;11.582;2023-09-12T06:58:29;23.40;66.20
41644;DHT22;44236;48.098;11.582;2023-09-12T07:00:54;23.50;68.00
41644;DHT22;44236;48.098;11.582;2023-09-12T07:03:20;23.40;60.40
41644;DHT22;44236;48.098;11.582;2023-09-12T07:05:46;23.40;60.40
41644;DHT22;44236;48.098;11.582;2023-09-12T07:08:12;23.40;60.20
41644;DHT22;44236;48.098;11.582;2023-09-12T07:10:43;23.40;60.40
41644;DHT22;44236;48.098;11.582;2023-09-12T07:13:09;23.40;60.20
41644;DHT22;44236;48.098;11.582;2023-09-12T07:15:36;23.40;60.00
41644;DHT22;44236;48.098;11.582;2023-09-12T07:18:01;23.40;59.80
41644;DHT22;44236;48.098;11.582;2023-09-12T07:20:27;23.40;59.40
41644;DHT22;44236;48.098;11.582;2023-09-12T07:22:53;23.50;59.30
41644;DHT22;44236;48.098;11.582;2023-09-12T07:25:19;23.50;59.30
41644;DHT22;44236;48.098;11.582;2023-09-12T07:27:46;23.50;59.50
41644;DHT22;44236;48.098;11.582;2023-09-12T07:30:12;23.50;59.40
41644;DHT22;44236;48.098;11.582;2023-09-12T07:32:37;23.50;59.50
41644;DHT22;44236;48.098;11.582;2023-09-12T07:35:03;23.60;59.30
41644;DHT22;44236;48.098;11.582;2023-09-12T07:37:29;23.60;59.50
41644;DHT22;44236;48.098;11.582;2023-09-12T07:39:54;23.60;59.40
41644;DHT22;44236;48.098;11.582;2023-09-12T07:42:23;23.60;59.30
41644;DHT22;44236;48.098;11.582;2023-09-12T07:44:49;23.60;59.60
41644;DHT22;44236;48.098;11.582;2023-09-12T07:47:15;23.60;59.70
41644;DHT22;44236;48.098;11.582;2023-09-12T07:49:41;23.60;58.90
41644;DHT22;44236;48.098;11.582;2023-09-12T07:52:06;23.60;58.70
41644;DHT22;44236;48.098;11.582;2023-09-12T07:54:32;23.70;58.90
41644;DHT22;44236;48.098;11.582;2023-09-12T07:56:58;23.70;58.80
41644;DHT22;44236;48.098;11.582;2023-09-12T07:59:24;23.70;59.30
41644;DHT22;44236;48.098;11.582;2023-09-12T08:01:50;23.70;58.80
41644;DHT22;44236;48.098;11.582;2023-09-12T08:04:16;23.70;58.80
41644;DHT22;44236;48.098;11.582;2023-09-12T08:06:44;23.70;58.60
41644;DHT22;44236;48.098;11.582;2023-09-12T08:09:09;23.70;58.50
41644;DHT22;44236;48.098;11.582;2023-09-12T08:11:35;23.70;58.60
41644;DHT22;44236;48.098;11.582;2023-09-12T08:14:02;23.80;58.60
41644;DHT22;44236;48.098;11.582;2023-09-12T08:16:28;23.80;58.60
41644;DHT22;44236;48.098;11.582;2023-09-12T08:18:54;23.70;58.60
41644;DHT22;44236;48.098;11.582;2023-09-12T08:21:19;23.80;58.60
41644;DHT22;44236;48.098;11.582;2023-09-12T08:23:46;23.80;58.80
41644;DHT22;44236;48.098;11.582;2023-09-12T08:26:12;23.80;58.90
41644;DHT22;44236;48.098;11.582;2023-09-12T08:28:38;23.80;59.00
41644;DHT22;44236;48.098;11.582;2023-09-12T08:31:04;23.80;59.30
41644;DHT22;44236;48.098;11.582;2023-09-12T08:33:30;23.90;60.80
41644;DHT22;44236;48.098;11.582;2023-09-12T08:35:56;23.90;60.10
41644;DHT22;44236;48.098;11.582;2023-09-12T08:38:21;23.90;60.20
41644;DHT22;44236;48.098;11.582;2023-09-12T08:40:49;24.00;61.80
41644;DHT22;44236;48.098;11.582;2023-09-12T08:43:15;23.90;59.70
41644;DHT22;44236;48.098;11.582;2023-09-12T08:45:41;23.90;59.80
41644;DHT22;44236;48.098;11.582;2023-09-12T08:48:10;23.90;59.90
41644;DHT22;44236;48.098;11.582;2023-09-12T08:50:36;23.90;60.10
41644;DHT22;44236;48.098;11.582;2023-09-12T08:53:02;23.90;60.20
41644;DHT22;44236;48.098;11.582;2023-09-12T08:55:28;23.90;60.30
41644;DHT22;44236;48.098;11.582;2023-09-12T08:57:56;23.90;60.30
41644;DHT22;44236;48.098;11.582;2023-09-12T09:00:26;23.90;60.50
41644;DHT22;44236;48.098;11.582;2023-09-12T09:02:53;24.00;60.60
41644;DHT22;44236;48.098;11.582;2023-09-12T09:05:21;23.60;60.40
41644;DHT22;44236;48.098;11.582;2023-09-12T09:07:48;24.00;60.90
41644;DHT22;44236;48.098;11.582;2023-09-12T09:10:16;24.00;60.80
41644;DHT22;44236;48.098;11.582;2023-09-12T09:12:44;24.00;61.00
41644;DHT22;44236;48.098;11.582;2023-09-12T09:15:28;24.20;63.30
41644;DHT22;44236;48.098;11.582;2023-09-12T09:17:56;24.10;62.40
41644;DHT22;44236;48.098;11.582;2023-09-12T09:20:27;24.20;64.30
41644;DHT22;44236;48.098;11.582;2023-09-12T09:25:33;24.10;62.00
41644;DHT22;44236;48.098;11.582;2023-09-12T09:28:05;24.10;61.80
41644;DHT22;44236;48.098;11.582;2023-09-12T09:30:45;24.20;61.90
41644;DHT22;44236;48.098;11.582;2023-09-12T09:33:12;24.20;61.90
41644;DHT22;44236;48.098;11.582;2023-09-12T09:35:40;24.20;65.50
41644;DHT22;44236;48.098;11.582;2023-09-12T09:38:07;24.20;64.40
41644;DHT22;44236;48.098;11.582;2023-09-12T09:40:33;24.20;62.90
41644;DHT22;44236;48.098;11.582;2023-09-12T09:43:00;24.20;62.80
41644;DHT22;44236;48.098;11.582;2023-09-12T09:45:28;24.20;63.50
41644;DHT22;44236;48.098;11.582;2023-09-12T09:47:57;24.20;63.30
41644;DHT22;44236;48.098;11.582;2023-09-12T09:50:24;24.20;62.70
41644;DHT22;44236;48.098;11.582;2023-09-12T09:52:54;24.20;62.90
41644;DHT22;44236;48.098;11.582;2023-09-12T09:55:20;24.20;62.80
41644;DHT22;44236;48.098;11.582;2023-09-12T09:57:46;24.30;62.60
41644;DHT22;44236;48.098;11.582;2023-09-12T10:00:13;24.30;62.30
41644;DHT22;44236;48.098;11.582;2023-09-12T10:02:40;24.30;62.80
41644;DHT22;44236;48.098;11.582;2023-09-12T10:05:09;24.30;62.60
41644;DHT22;44236;48.098;11.582;2023-09-12T10:07:37;24.30;62.60
41644;DHT22;44236;48.098;11.582;2023-09-12T10:10:04;24.30;63.10
41644;DHT22;44236;48.098;11.582;2023-09-12T10:12:40;24.30;62.80
41644;DHT22;44236;48.098;11.582;2023-09-12T10:15:09;24.40;62.90
41644;DHT22;44236;48.098;11.582;2023-09-12T10:17:39;24.40;63.00
41644;DHT22;44236;48.098;11.582;2023-09-12T10:20:12;24.40;63.00
41644;DHT22;44236;48.098;11.582;2023-09-12T10:22:46;24.40;62.90
41644;DHT22;44236;48.098;11.582;2023-09-12T10:25:14;24.40;63.00
41644;DHT22;44236;48.098;11.582;2023-09-12T10:27:40;24.40;63.00
41644;DHT22;44236;48.098;11.582;2023-09-12T10:30:07;24.40;63.00
41644;DHT22;44236;48.098;11.582;2023-09-12T10:32:33;24.40;63.30
41644;DHT22;44236;48.098;11.582;2023-09-12T10:35:00;24.60;82.80
41644;DHT22;44236;48.098;11.582;2023-09-12T10:37:29;24.60;85.50
41644;DHT22;44236;48.098;11.582;2023-09-12T10:39:58;24.40;63.10
41644;DHT22;44236;48.098;11.582;2023-09-12T10:42:27;24.50;63.20
41644;DHT22;44236;48.098;11.582;2023-09-12T10:44:54;24.50;63.20
41644;DHT22;44236;48.098;11.582;2023-09-12T10:47:20;24.50;63.20
41644;DHT22;44236;48.098;11.582;2023-09-12T10:49:48;24.50;63.50
41644;DHT22;44236;48.098;11.582;2023-09-12T10:52:29;24.60;64.00
41644;DHT22;44236;48.098;11.582;2023-09-12T10:54:55;24.50;63.00
41644;DHT22;44236;48.098;11.582;2023-09-12T10:57:21;24.50;63.20
41644;DHT22;44236;48.098;11.582;2023-09-12T11:04:58;24.70;64.10
41644;DHT22;44236;48.098;11.582;2023-09-12T11:07:45;24.60;64.70
41644;DHT22;44236;48.098;11.582;2023-09-12T11:12:51;24.60;63.00
41644;DHT22;44236;48.098;11.582;2023-09-12T11:15:18;24.60;63.10
41644;DHT22;44236;48.098;11.582;2023-09-12T11:17:46;24.60;63.10
41644;DHT22;44236;48.098;11.582;2023-09-12T11:20:13;24.60;63.00
41644;DHT22;44236;48.098;11.582;2023-09-12T11:22:41;24.70;63.10
41644;DHT22;44236;48.098;11.582;2023-09-12T11:30:23;24.70;63.00
41644;DHT22;44236;48.098;11.582;2023-09-12T11:32:51;24.70;63.10
41644;DHT22;44236;48.098;11.582;2023-09-12T11:35:22;24.70;63.10
41644;DHT22;44236;48.098;11.582;2023-09-12T11:37:58;24.70;63.00
41644;DHT22;44236;48.098;11.582;2023-09-12T11:42:59;24.80;63.10
41644;DHT22;44236;48.098;11.582;2023-09-12T11:45:25;24.70;63.00
41644;DHT22;44236;48.098;11.582;2023-09-12T11:47:51;24.70;62.90
41644;DHT22;44236;48.098;11.582;2023-09-12T11:53:03;24.80;62.90
41644;DHT22;44236;48.098;11.582;2023-09-12T11:55:32;24.80;62.90
41644;DHT22;44236;48.098;11.582;2023-09-12T11:57:58;24.80;62.90
41644;DHT22;44236;48.098;11.582;2023-09-12T12:00:23;24.80;62.90
41644;DHT22;44236;48.098;11.582;2023-09-12T12:02:52;24.80;62.90
41644;DHT22;44236;48.098;11.582;2023-09-12T12:05:18;24.80;62.90
41644;DHT22;44236;48.098;11.582;2023-09-12T12:07:43;24.80;63.00
41644;DHT22;44236;48.098;11.582;2023-09-12T12:10:12;24.80;62.90
41644;DHT22;44236;48.098;11.582;2023-09-12T12:12:37;24.80;62.80
41644;DHT22;44236;48.098;11.582;2023-09-12T12:15:03;24.90;63.30
41644;DHT22;44236;48.098;11.582;2023-09-12T12:17:29;25.60;88.30
41644;DHT22;44236;48.098;11.582;2023-09-12T12:19:54;25.00;69.80
41644;DHT22;44236;48.098;11.582;2023-09-12T12:22:21;25.00;64.80
41644;DHT22;44236;48.098;11.582;2023-09-12T12:24:49;24.90;62.90
41644;DHT22;44236;48.098;11.582;2023-09-12T12:27:17;24.90;62.90
41644;DHT22;44236;48.098;11.582;2023-09-12T12:29:42;24.90;62.80
41644;DHT22;44236;48.098;11.582;2023-09-12T12:32:10;24.90;62.90
41644;DHT22;44236;48.098;11.582;2023-09-12T12:34:36;24.90;63.20
41644;DHT22;44236;48.098;11.582;2023-09-12T12:37:02;24.90;62.70
41644;DHT22;44236;48.098;11.582;2023-09-12T12:39:28;24.90;62.80
41644;DHT22;44236;48.098;11.582;2023-09-12T12:41:53;24.90;62.80
41644;DHT22;44236;48.098;11.582;2023-09-12T12:44:20;24.90;62.70
41644;DHT22;44236;48.098;11.582;2023-09-12T12:46:53;24.90;62.70
41644;DHT22;44236;48.098;11.582;2023-09-12T12:49:19;25.00;62.70
41644;DHT22;44236;48.098;11.582;2023-09-12T12:51:46;25.00;62.60
41644;DHT22;44236;48.098;11.582;2023-09-12T12:54:12;25.00;62.60
41644;DHT22;44236;48.098;11.582;2023-09-12T12:56:38;25.00;62.60
41644;DHT22;44236;48.098;11.582;2023-09-12T12:59:06;25.00;62.50
41644;DHT22;44236;48.098;11.582;2023-09-12T13:01:35;25.00;62.60
41644;DHT22;44236;48.098;11.582;2023-09-12T13:04:00;25.00;62.30
41644;DHT22;44236;48.098;11.582;2023-09-12T13:06:26;25.00;62.30
41644;DHT22;44236;48.098;11.582;2023-09-12T13:08:55;25.00;62.40
41644;DHT22;44236;48.098;11.582;2023-09-12T13:11:26;25.00;62.20
41644;DHT22;44236;48.098;11.582;2023-09-12T13:13:52;25.00;62.20
41644;DHT22;44236;48.098;11.582;2023-09-12T13:16:18;25.00;62.20
41644;DHT22;44236;48.098;11.582;2023-09-12T13:18:43;25.00;62.10
41644;DHT22;44236;48.098;11.582;2023-09-12T13:21:09;25.00;62.10
41644;DHT22;44236;48.098;11.582;2023-09-12T13:23:36;25.00;62.10
41644;DHT22;44236;48.098;11.582;2023-09-12T13:26:02;25.00;62.00
41644;DHT22;44236;48.098;11.582;2023-09-12T13:28:28;25.00;62.10
41644;DHT22;44236;48.098;11.582;2023-09-12T13:30:54;25.00;62.10
41644;DHT22;44236;48.098;11.582;2023-09-12T13:33:20;25.00;62.10
41644;DHT22;44236;48.098;11.582;2023-09-12T13:35:49;25.00;62.10
41644;DHT22;44236;48.098;11.582;2023-09-12T13:38:15;25.10;62.00
41644;DHT22;44236;48.098;11.582;2023-09-12T13:40:43;25.00;61.90
41644;DHT22;44236;48.098;11.582;2023-09-12T13:43:09;25.10;61.90
41644;DHT22;44236;48.098;11.582;2023-09-12T13:45:35;25.10;61.70
41644;DHT22;44236;48.098;11.582;2023-09-12T13:48:02;25.10;61.70
41644;DHT22;44236;48.098;11.582;2023-09-12T13:50:29;25.10;61.70
41644;DHT22;44236;48.098;11.582;2023-09-12T13:52:58;25.10;61.30
41644;DHT22;44236;48.098;11.582;2023-09-12T13:55:34;25.10;61.40
41644;DHT22;44236;48.098;11.582;2023-09-12T13:58:04;25.10;61.30
41644;DHT22;44236;48.098;11.582;2023-09-12T14:00:30;25.10;61.30
41644;DHT22;44236;48.098;11.582;2023-09-12T14:02:56;25.10;61.30
41644;DHT22;44236;48.098;11.582;2023-09-12T14:05:22;25.10;61.20
41644;DHT22;44236;48.098;11.582;2023-09-12T14:07:47;25.10;61.40
41644;DHT22;44236;48.098;11.582;2023-09-12T14:10:15;25.10;61.30
41644;DHT22;44236;48.098;11.582;2023-09-12T14:12:40;25.10;61.40
41644;DHT22;44236;48.098;11.582;2023-09-12T14:15:07;25.10;61.60
41644;DHT22;44236;48.098;11.582;2023-09-12T14:17:33;25.10;61.40
41644;DHT22;44236;48.098;11.582;2023-09-12T14:19:58;25.10;61.30
41644;DHT22;44236;48.098;11.582;2023-09-12T14:22:24;25.10;61.40
41644;DHT22;44236;48.098;11.582;2023-09-12T14:24:50;25.10;61.50
41644;DHT22;44236;48.098;11.582;2023-09-12T14:27:16;25.10;61.50
41644;DHT22;44236;48.098;11.582;2023-09-12T14:29:41;25.10;61.50
41644;DHT22;44236;48.098;11.582;2023-09-12T14:32:11;25.10;61.50
41644;DHT22;44236;48.098;11.582;2023-09-12T14:34:38;25.10;61.30
41644;DHT22;44236;48.098;11.582;2023-09-12T14:37:04;25.20;60.70
41644;DHT22;44236;48.098;11.582;2023-09-12T14:39:31;25.20;60.90
41644;DHT22;44236;48.098;11.582;2023-09-12T14:41:56;25.20;60.60
41644;DHT22;44236;48.098;11.582;2023-09-12T14:44:22;25.20;60.20
41644;DHT22;44236;48.098;11.582;2023-09-12T14:46:48;25.30;55.70
41644;DHT22;44236;48.098;11.582;2023-09-12T14:49:14;25.40;57.60
41644;DHT22;44236;48.098;11.582;2023-09-12T14:51:40;25.30;57.00
41644;DHT22;44236;48.098;11.582;2023-09-12T14:54:06;25.30;58.20
41644;DHT22;44236;48.098;11.582;2023-09-12T14:56:33;25.30;57.40
41644;DHT22;44236;48.098;11.582;2023-09-12T14:58:59;25.40;57.40
41644;DHT22;44236;48.098;11.582;2023-09-12T15:01:25;25.50;55.80
41644;DHT22;44236;48.098;11.582;2023-09-12T15:03:51;25.50;56.00
41644;DHT22;44236;48.098;11.582;2023-09-12T15:06:19;25.60;56.00
41644;DHT22;44236;48.098;11.582;2023-09-12T15:08:46;25.70;55.30
41644;DHT22;44236;48.098;11.582;2023-09-12T15:11:11;25.80;60.90
41644;DHT22;44236;48.098;11.582;2023-09-12T15:13:38;25.80;67.00
41644;DHT22;44236;48.098;11.582;2023-09-12T15:16:04;25.80;65.60
41644;DHT22;44236;48.098;11.582;2023-09-12T15:18:30;25.70;66.20
41644;DHT22;44236;48.098;11.582;2023-09-12T15:20:56;25.80;66.80
41644;DHT22;44236;48.098;11.582;2023-09-12T15:23:21;25.80;66.10
41644;DHT22;44236;48.098;11.582;2023-09-12T15:25:51;25.80;67.00
41644;DHT22;44236;48.098;11.582;2023-09-12T15:28:18;25.80;66.30
41644;DHT22;44236;48.098;11.582;2023-09-12T15:30:44;25.80;67.10
41644;DHT22;44236;48.098;11.582;2023-09-12T15:33:10;25.80;66.40
41644;DHT22;44236;48.098;11.582;2023-09-12T15:35:36;25.40;66.80
41644;DHT22;44236;48.098;11.582;2023-09-12T15:38:01;25.80;66.20
41644;DHT22;44236;48.098;11.582;2023-09-12T15:40:28;25.80;66.60
41644;DHT22;44236;48.098;11.582;2023-09-12T15:42:53;25.80;67.00
41644;DHT22;44236;48.098;11.582;2023-09-12T15:45:19;25.80;67.40
41644;DHT22;44236;48.098;11.582;2023-09-12T15:47:46;25.80;66.70
41644;DHT22;44236;48.098;11.582;2023-09-12T15:50:12;25.90;66.90
41644;DHT22;44236;48.098;11.582;2023-09-12T15:52:38;26.20;67.40
41644;DHT22;44236;48.098;11.582;2023-09-12T15:55:09;25.80;66.90
41644;DHT22;44236;48.098;11.582;2023-09-12T15:57:36;25.80;67.30
41644;DHT22;44236;48.098;11.582;2023-09-12T16:00:05;25.80;66.80
41644;DHT22;44236;48.098;11.582;2023-09-12T16:02:33;25.80;66.90
41644;DHT22;44236;48.098;11.582;2023-09-12T16:04:59;25.80;67.30
41644;DHT22;44236;48.098;11.582;2023-09-12T16:07:25;25.80;66.80
41644;DHT22;44236;48.098;11.582;2023-09-12T16:09:51;25.80;66.80
41644;DHT22;44236;48.098;11.582;2023-09-12T16:12:16;25.80;67.00
41644;DHT22;44236;48.098;11.582;2023-09-12T16:14:42;25.80;66.80
41644;DHT22;44236;48.098;11.582;2023-09-12T16:17:08;25.80;67.00
41644;DHT22;44236;48.098;11.582;2023-09-12T16:19:34;25.80;67.20
41644;DHT22;44236;48.098;11.582;2023-09-12T16:21:59;25.80;67.10
41644;DHT22;44236;48.098;11.582;2023-09-12T16:24:25;25.80;66.80
41644;DHT22;44236;48.098;11.582;2023-09-12T16:26:51;25.80;66.60
41644;DHT22;44236;48.098;11.582;2023-09-12T16:29:17;25.80;67.00
41644;DHT22;44236;48.098;11.582;2023-09-12T16:31:42;25.80;66.60
41644;DHT22;44236;48.098;11.582;2023-09-12T16:34:08;25.80;66.80
41644;DHT22;44236;48.098;11.582;2023-09-12T16:36:33;25.80;67.00
41644;DHT22;44236;48.098;11.582;2023-09-12T16:38:59;25.80;66.40
41644;DHT22;44236;48.098;11.582;2023-09-12T16:41:25;25.80;66.10
41644;DHT22;44236;48.098;11.582;2023-09-12T16:43:50;25.80;66.60
41644;DHT22;44236;48.098;11.582;2023-09-12T16:46:16;25.80;66.90
41644;DHT22;44236;48.098;11.582;2023-09-12T16:48:41;25.80;67.10
41644;DHT22;44236;48.098;11.582;2023-09-12T16:51:08;25.80;67.20
41644;DHT22;44236;48.098;11.582;2023-09-12T16:53:34;25.80;67.30
41644;DHT22;44236;48.098;11.582;2023-09-12T16:56:00;25.80;67.00
41644;DHT22;44236;48.098;11.582;2023-09-12T16:58:25;25.80;68.00
41644;DHT22;44236;48.098;11.582;2023-09-12T17:00:52;25.80;67.90
41644;DHT22;44236;48.098;11.582;2023-09-12T17:03:18;25.80;67.90
41644;DHT22;44236;48.098;11.582;2023-09-12T17:05:44;25.80;68.20
41644;DHT22;44236;48.098;11.582;2023-09-12T17:08:10;25.70;68.10
41644;DHT22;44236;48.098;11.582;2023-09-12T17:10:36;25.80;68.70
41644;DHT22;44236;48.098;11.582;2023-09-12T17:13:02;25.70;68.50
41644;DHT22;44236;48.098;11.582;2023-09-12T17:15:28;25.70;68.70
41644;DHT22;44236;48.098;11.582;2023-09-12T17:17:53;25.70;68.90
41644;DHT22;44236;48.098;11.582;2023-09-12T17:20:19;25.70;68.90
41644;DHT22;44236;48.098;11.582;2023-09-12T17:22:45;25.70;69.00
41644;DHT22;44236;48.098;11.582;2023-09-12T17:25:10;25.70;68.90
41644;DHT22;44236;48.098;11.582;2023-09-12T17:27:39;25.50;69.10
41644;DHT22;44236;48.098;11.582;2023-09-12T17:30:06;25.70;68.70
41644;DHT22;44236;48.098;11.582;2023-09-12T17:32:32;25.70;68.50
41644;DHT22;44236;48.098;11.582;2023-09-12T17:34:58;25.70;68.70
41644;DHT22;44236;48.098;11.582;2023-09-12T17:37:28;25.70;68.80
41644;DHT22;44236;48.098;11.582;2023-09-12T17:39:54;25.80;69.00
41644;DHT22;44236;48.098;11.582;2023-09-12T17:42:20;25.70;69.30
41644;DHT22;44236;48.098;11.582;2023-09-12T17:44:46;25.70;69.50
41644;DHT22;44236;48.098;11.582;2023-09-12T17:47:11;25.60;69.60
41644;DHT22;44236;48.098;11.582;2023-09-12T17:49:37;25.60;70.00
41644;DHT22;44236;48.098;11.582;2023-09-12T17:52:03;25.60;70.00
41644;DHT22;44236;48.098;11.582;2023-09-12T17:54:28;25.60;70.10
41644;DHT22;44236;48.098;11.582;2023-09-12T17:56:54;25.60;70.50
41644;DHT22;44236;48.098;11.582;2023-09-12T17:59:20;25.60;70.60
41644;DHT22;44236;48.098;11.582;2023-09-12T18:01:45;25.60;70.60
41644;DHT22;44236;48.098;11.582;2023-09-12T18:04:12;25.60;70.50
41644;DHT22;44236;48.098;11.582;2023-09-12T18:06:38;25.60;70.60
41644;DHT22;44236;48.098;11.582;2023-09-12T18:09:04;25.60;70.40
41644;DHT22;44236;48.098;11.582;2023-09-12T18:11:31;25.60;70.60
41644;DHT22;44236;48.098;11.582;2023-09-12T18:13:57;25.60;70.80
41644;DHT22;44236;48.098;11.582;2023-09-12T18:16:23;25.60;70.70
41644;DHT22;44236;48.098;11.582;2023-09-12T18:18:49;25.50;70.90
41644;DHT22;44236;48.098;11.582;2023-09-12T18:21:16;25.50;70.90